FDX11 EDDF-SEQM
Flight info
| Callsign | FDX11 |
|---|---|
| Flight time | N/A |
| Altitude | 30000 |
| Route | OBOKA5G/25C OBOKA Z29 TORNU DCT GALSO Q63 ERING L179 UGBET/N0481F320 Q60 OKSAW DCT FELCA DCT FADZU DCT BANBA DCT ERTER DCT UNLID/M083F320 DCT EPUNA DCT RODEL DCT 48N022W 45N029W 41N035W 37N041W 33N046W 29N051W 25N055W/M083F340 DCT RKDIA M576 OBIKE/N0493F340 M576 MILOK UM576 PJG UL325 ALCOT UG431 ENPUT UW1 CUC UW26 RNG/N0480F350 UP778 BOKAN UP533 ARNOK |
| Aircraft | B772/H-SDE2E3FGHIJ5LORVWXY/LB1D1 |
Departure
| Time | 2026-05-05 20:59 |
|---|---|
| Airport | Frankfurt Main Airport (EDDF) |
Arrival
| Time | N/A |
|---|---|
| Airport | Mariscal Sucre International Airport (SEQM) |
| Time | Latitude | Longitude | Altitude | Speed | Heading |
|---|---|---|---|---|---|
| 2026-05-05 19:57 | 50.03715 | 8.53096 | 351 ft | 0 kts | 340° |
| 2026-05-05 20:38 | 50.03716 | 8.53096 | 350 ft | 0 kts | 340° |
| 2026-05-05 20:39 | 50.03717 | 8.53096 | 350 ft | 0 kts | 340° |
| 2026-05-05 20:39 | 50.03717 | 8.53095 | 350 ft | 0 kts | 340° |
| 2026-05-05 20:40 | 50.03718 | 8.53095 | 350 ft | 0 kts | 340° |
| 2026-05-05 20:41 | 50.03719 | 8.53094 | 350 ft | 0 kts | 340° |
| 2026-05-05 20:43 | 50.03720 | 8.53094 | 350 ft | 0 kts | 340° |
| 2026-05-05 20:43 | 50.03720 | 8.53093 | 350 ft | 0 kts | 340° |
| 2026-05-05 20:44 | 50.03721 | 8.53093 | 350 ft | 0 kts | 340° |
| 2026-05-05 20:45 | 50.03699 | 8.53106 | 350 ft | 3 kts | 339° |
| 2026-05-05 20:45 | 50.03676 | 8.53121 | 350 ft | 3 kts | 338° |
| 2026-05-05 20:45 | 50.03654 | 8.53135 | 350 ft | 2 kts | 332° |
| 2026-05-05 20:46 | 50.03645 | 8.53145 | 350 ft | 2 kts | 313° |
| 2026-05-05 20:46 | 50.03636 | 8.53170 | 350 ft | 2 kts | 280° |
| 2026-05-05 20:46 | 50.03637 | 8.53197 | 350 ft | 2 kts | 248° |
| 2026-05-05 20:46 | 50.03642 | 8.53213 | 350 ft | 1 kts | 239° |
| 2026-05-05 20:47 | 50.03644 | 8.53219 | 350 ft | 0 kts | 240° |
| 2026-05-05 20:47 | 50.03638 | 8.53196 | 350 ft | 3 kts | 252° |
| 2026-05-05 20:47 | 50.03636 | 8.53188 | 350 ft | 0 kts | 252° |
| 2026-05-05 20:53 | 50.03636 | 8.53187 | 350 ft | 0 kts | 252° |
| 2026-05-05 20:53 | 50.03629 | 8.53158 | 350 ft | 4 kts | 251° |
| 2026-05-05 20:53 | 50.03618 | 8.53106 | 349 ft | 5 kts | 249° |
| 2026-05-05 20:53 | 50.03591 | 8.53059 | 349 ft | 6 kts | 207° |
| 2026-05-05 20:54 | 50.03543 | 8.53063 | 348 ft | 7 kts | 171° |
| 2026-05-05 20:54 | 50.03508 | 8.53011 | 347 ft | 7 kts | 246° |
| 2026-05-05 20:54 | 50.03486 | 8.52929 | 347 ft | 8 kts | 248° |
| 2026-05-05 20:54 | 50.03462 | 8.52838 | 346 ft | 9 kts | 248° |
| 2026-05-05 20:55 | 50.03443 | 8.52766 | 346 ft | 3 kts | 248° |
| 2026-05-05 20:55 | 50.03439 | 8.52750 | 346 ft | 0 kts | 248° |
| 2026-05-05 20:55 | 50.03439 | 8.52751 | 346 ft | 0 kts | 248° |
| 2026-05-05 20:56 | 50.03439 | 8.52750 | 346 ft | 0 kts | 248° |
| 2026-05-05 20:56 | 50.03433 | 8.52729 | 346 ft | 3 kts | 248° |
| 2026-05-05 20:56 | 50.03422 | 8.52688 | 345 ft | 5 kts | 249° |
| 2026-05-05 20:56 | 50.03408 | 8.52633 | 345 ft | 5 kts | 249° |
| 2026-05-05 20:57 | 50.03380 | 8.52588 | 345 ft | 6 kts | 197° |
| 2026-05-05 20:57 | 50.03355 | 8.52588 | 344 ft | 0 kts | 175° |
| 2026-05-05 20:58 | 50.03354 | 8.52589 | 344 ft | 1 kts | 175° |
| 2026-05-05 20:58 | 50.03264 | 8.52594 | 342 ft | 37 kts | 180° |
| 2026-05-05 20:58 | 50.02763 | 8.52599 | 334 ft | 103 kts | 180° |
| 2026-05-05 20:59 | 50.01843 | 8.52608 | 336 ft | 159 kts | 179° |
| 2026-05-05 20:59 | 50.00574 | 8.52626 | 370 ft | 202 kts | 180° |
| 2026-05-05 20:59 | 49.99186 | 8.52647 | 1004 ft | 200 kts | 183° |
| 2026-05-05 20:59 | 49.97866 | 8.52161 | 1671 ft | 202 kts | 208° |
| 2026-05-05 21:00 | 49.96742 | 8.50900 | 2143 ft | 205 kts | 225° |
| 2026-05-05 21:00 | 49.95692 | 8.49266 | 2300 ft | 221 kts | 227° |
| 2026-05-05 21:00 | 49.94575 | 8.47532 | 2431 ft | 239 kts | 225° |
| 2026-05-05 21:00 | 49.93342 | 8.45687 | 2702 ft | 250 kts | 224° |
| 2026-05-05 21:01 | 49.92098 | 8.43844 | 3380 ft | 245 kts | 225° |
| 2026-05-05 21:01 | 49.90845 | 8.41970 | 3643 ft | 257 kts | 224° |
| 2026-05-05 21:01 | 49.89558 | 8.40048 | 4188 ft | 257 kts | 226° |
| 2026-05-05 21:01 | 49.88309 | 8.38096 | 4757 ft | 256 kts | 231° |
| 2026-05-05 21:02 | 49.87394 | 8.35743 | 5200 ft | 259 kts | 252° |
| 2026-05-05 21:02 | 49.87141 | 8.32990 | 5682 ft | 260 kts | 275° |
| 2026-05-05 21:02 | 49.87658 | 8.30322 | 6152 ft | 264 kts | 298° |
| 2026-05-05 21:02 | 49.88779 | 8.28059 | 6570 ft | 269 kts | 307° |
| 2026-05-05 21:03 | 49.89952 | 8.25799 | 7011 ft | 271 kts | 303° |
| 2026-05-05 21:03 | 49.91018 | 8.23395 | 7505 ft | 271 kts | 300° |
| 2026-05-05 21:03 | 49.92017 | 8.20937 | 8027 ft | 270 kts | 299° |
| 2026-05-05 21:03 | 49.93041 | 8.18479 | 8429 ft | 274 kts | 301° |
| 2026-05-05 21:04 | 49.94123 | 8.16063 | 8886 ft | 276 kts | 310° |
| 2026-05-05 21:04 | 49.95543 | 8.14019 | 9355 ft | 279 kts | 316° |
| 2026-05-05 21:04 | 49.97021 | 8.12065 | 9728 ft | 284 kts | 317° |
| 2026-05-05 21:04 | 49.98540 | 8.10092 | 10119 ft | 288 kts | 316° |
| 2026-05-05 21:05 | 50.00088 | 8.07997 | 10227 ft | 302 kts | 315° |
| 2026-05-05 21:05 | 50.01667 | 8.05842 | 10544 ft | 309 kts | 316° |
| 2026-05-05 21:05 | 50.03350 | 8.03608 | 10657 ft | 324 kts | 317° |
| 2026-05-05 21:05 | 50.05105 | 8.01273 | 10731 ft | 339 kts | 317° |
| 2026-05-05 21:06 | 50.06910 | 7.98859 | 10807 ft | 354 kts | 317° |
| 2026-05-05 21:06 | 50.08807 | 7.96311 | 10927 ft | 368 kts | 317° |
| 2026-05-05 21:06 | 50.10776 | 7.93666 | 11339 ft | 372 kts | 316° |
| 2026-05-05 21:06 | 50.12707 | 7.91069 | 11842 ft | 373 kts | 317° |
| 2026-05-05 21:07 | 50.14664 | 7.88433 | 12303 ft | 376 kts | 317° |
| 2026-05-05 21:07 | 50.16672 | 7.85725 | 12696 ft | 380 kts | 317° |
| 2026-05-05 21:07 | 50.18647 | 7.83058 | 13143 ft | 382 kts | 317° |
| 2026-05-05 21:07 | 50.20681 | 7.80308 | 13556 ft | 385 kts | 317° |
| 2026-05-05 21:08 | 50.22706 | 7.77566 | 13940 ft | 389 kts | 317° |
| 2026-05-05 21:08 | 50.24761 | 7.74888 | 14339 ft | 392 kts | 323° |
| 2026-05-05 21:08 | 50.27129 | 7.72680 | 14767 ft | 396 kts | 334° |
| 2026-05-05 21:08 | 50.29623 | 7.70932 | 15156 ft | 400 kts | 335° |
| 2026-05-05 21:09 | 50.32171 | 7.69199 | 15513 ft | 403 kts | 336° |
| 2026-05-05 21:09 | 50.34781 | 7.67420 | 15902 ft | 406 kts | 335° |
| 2026-05-05 21:09 | 50.37366 | 7.65653 | 16261 ft | 409 kts | 335° |
| 2026-05-05 21:09 | 50.39959 | 7.63877 | 16623 ft | 412 kts | 335° |
| 2026-05-05 21:10 | 50.42589 | 7.62072 | 17005 ft | 415 kts | 336° |
| 2026-05-05 21:10 | 50.45215 | 7.60266 | 17362 ft | 417 kts | 336° |
| 2026-05-05 21:10 | 50.47879 | 7.58431 | 17743 ft | 419 kts | 336° |
| 2026-05-05 21:10 | 50.50564 | 7.56580 | 18066 ft | 422 kts | 336° |
| 2026-05-05 21:11 | 50.53258 | 7.54720 | 18390 ft | 425 kts | 336° |
| 2026-05-05 21:11 | 50.55908 | 7.52758 | 18727 ft | 427 kts | 330° |
| 2026-05-05 21:11 | 50.58422 | 7.50309 | 19079 ft | 428 kts | 327° |
| 2026-05-05 21:11 | 50.60944 | 7.47729 | 19378 ft | 431 kts | 327° |
| 2026-05-05 21:12 | 50.63434 | 7.45174 | 19768 ft | 432 kts | 327° |
| 2026-05-05 21:12 | 50.65943 | 7.42598 | 20125 ft | 433 kts | 327° |
| 2026-05-05 21:12 | 50.68472 | 7.39999 | 20417 ft | 436 kts | 327° |
| 2026-05-05 21:12 | 50.71008 | 7.37365 | 20669 ft | 439 kts | 324° |
| 2026-05-05 21:13 | 50.73336 | 7.34278 | 20909 ft | 440 kts | 313° |
| 2026-05-05 21:13 | 50.75309 | 7.30573 | 21176 ft | 442 kts | 303° |
| 2026-05-05 21:13 | 50.76872 | 7.26417 | 21500 ft | 442 kts | 297° |
| 2026-05-05 21:13 | 50.78306 | 7.22076 | 21758 ft | 445 kts | 296° |
| 2026-05-05 21:14 | 50.79709 | 7.17775 | 21992 ft | 448 kts | 296° |
| 2026-05-05 21:14 | 50.81146 | 7.13353 | 22262 ft | 450 kts | 296° |
| 2026-05-05 21:14 | 50.82565 | 7.08983 | 22549 ft | 451 kts | 296° |
| 2026-05-05 21:14 | 50.84001 | 7.04549 | 22812 ft | 454 kts | 296° |
| 2026-05-05 21:15 | 50.85421 | 7.00159 | 23057 ft | 457 kts | 296° |
| 2026-05-05 21:15 | 50.86864 | 6.95686 | 23376 ft | 457 kts | 296° |
| 2026-05-05 21:15 | 50.88307 | 6.91205 | 23668 ft | 458 kts | 296° |
| 2026-05-05 21:15 | 50.89753 | 6.86710 | 23988 ft | 459 kts | 296° |
| 2026-05-05 21:16 | 50.91191 | 6.82229 | 24163 ft | 462 kts | 296° |
| 2026-05-05 21:16 | 50.92656 | 6.77659 | 24345 ft | 466 kts | 296° |
| 2026-05-05 21:16 | 50.94112 | 6.73106 | 24567 ft | 468 kts | 296° |
| 2026-05-05 21:16 | 50.95572 | 6.68530 | 24864 ft | 468 kts | 296° |
| 2026-05-05 21:17 | 50.97038 | 6.63927 | 25118 ft | 469 kts | 296° |
| 2026-05-05 21:17 | 50.98517 | 6.59277 | 25300 ft | 472 kts | 296° |
| 2026-05-05 21:17 | 50.99999 | 6.54608 | 25495 ft | 475 kts | 296° |
| 2026-05-05 21:17 | 51.01491 | 6.49898 | 25751 ft | 476 kts | 296° |
| 2026-05-05 21:18 | 51.02970 | 6.45219 | 25971 ft | 478 kts | 296° |
| 2026-05-05 21:18 | 51.04411 | 6.40656 | 26136 ft | 481 kts | 296° |
| 2026-05-05 21:18 | 51.05902 | 6.35920 | 26370 ft | 482 kts | 296° |
| 2026-05-05 21:18 | 51.07401 | 6.31155 | 26629 ft | 483 kts | 295° |
| 2026-05-05 21:19 | 51.08917 | 6.26325 | 26864 ft | 484 kts | 295° |
| 2026-05-05 21:19 | 51.10410 | 6.21554 | 27038 ft | 487 kts | 295° |
| 2026-05-05 21:19 | 51.11923 | 6.16716 | 27212 ft | 490 kts | 295° |
| 2026-05-05 21:19 | 51.13396 | 6.11870 | 27430 ft | 490 kts | 292° |